sensor_id;sensor_type;location;lat;lon;timestamp;P1;durP1;ratioP1;P2;durP2;ratioP2
8927;SDS011;4499;48.304;11.902;2023-06-22T00:01:22;8.13;;;4.43;;
8927;SDS011;4499;48.304;11.902;2023-06-22T00:03:52;7.93;;;4.63;;
8927;SDS011;4499;48.304;11.902;2023-06-22T00:06:20;7.63;;;4.30;;
8927;SDS011;4499;48.304;11.902;2023-06-22T00:08:48;7.97;;;4.70;;
8927;SDS011;4499;48.304;11.902;2023-06-22T00:11:16;9.33;;;4.63;;
8927;SDS011;4499;48.304;11.902;2023-06-22T00:13:46;8.90;;;4.80;;
8927;SDS011;4499;48.304;11.902;2023-06-22T00:16:15;8.97;;;4.73;;
8927;SDS011;4499;48.304;11.902;2023-06-22T00:18:43;10.10;;;5.00;;
8927;SDS011;4499;48.304;11.902;2023-06-22T00:21:15;9.10;;;5.20;;
8927;SDS011;4499;48.304;11.902;2023-06-22T00:23:43;9.57;;;4.60;;
8927;SDS011;4499;48.304;11.902;2023-06-22T00:26:11;10.87;;;4.60;;
8927;SDS011;4499;48.304;11.902;2023-06-22T00:28:39;9.13;;;4.77;;
8927;SDS011;4499;48.304;11.902;2023-06-22T00:31:07;8.87;;;4.50;;
8927;SDS011;4499;48.304;11.902;2023-06-22T00:33:35;7.33;;;4.70;;
8927;SDS011;4499;48.304;11.902;2023-06-22T00:36:04;8.33;;;4.67;;
8927;SDS011;4499;48.304;11.902;2023-06-22T00:38:35;9.43;;;4.73;;
8927;SDS011;4499;48.304;11.902;2023-06-22T00:41:06;8.73;;;4.57;;
8927;SDS011;4499;48.304;11.902;2023-06-22T00:43:34;8.10;;;4.60;;
8927;SDS011;4499;48.304;11.902;2023-06-22T00:46:02;8.10;;;4.10;;
8927;SDS011;4499;48.304;11.902;2023-06-22T00:48:30;7.03;;;4.60;;
8927;SDS011;4499;48.304;11.902;2023-06-22T00:50:58;12.90;;;4.43;;
8927;SDS011;4499;48.304;11.902;2023-06-22T00:53:27;7.77;;;4.50;;
8927;SDS011;4499;48.304;11.902;2023-06-22T00:55:56;9.40;;;4.73;;
8927;SDS011;4499;48.304;11.902;2023-06-22T00:58:26;10.07;;;4.60;;
8927;SDS011;4499;48.304;11.902;2023-06-22T01:00:54;8.73;;;4.87;;
8927;SDS011;4499;48.304;11.902;2023-06-22T01:03:22;10.63;;;4.60;;
8927;SDS011;4499;48.304;11.902;2023-06-22T01:05:50;6.10;;;4.40;;
8927;SDS011;4499;48.304;11.902;2023-06-22T01:08:23;6.43;;;4.30;;
8927;SDS011;4499;48.304;11.902;2023-06-22T01:11:00;7.27;;;4.57;;
8927;SDS011;4499;48.304;11.902;2023-06-22T01:13:35;11.87;;;5.10;;
8927;SDS011;4499;48.304;11.902;2023-06-22T01:16:10;9.07;;;4.87;;
8927;SDS011;4499;48.304;11.902;2023-06-22T01:18:43;9.93;;;4.67;;
8927;SDS011;4499;48.304;11.902;2023-06-22T01:21:13;8.43;;;4.60;;
8927;SDS011;4499;48.304;11.902;2023-06-22T01:23:56;9.47;;;4.90;;
8927;SDS011;4499;48.304;11.902;2023-06-22T01:26:37;6.70;;;4.30;;
8927;SDS011;4499;48.304;11.902;2023-06-22T01:29:11;8.43;;;4.60;;
8927;SDS011;4499;48.304;11.902;2023-06-22T01:31:42;10.23;;;4.77;;
8927;SDS011;4499;48.304;11.902;2023-06-22T01:34:12;10.37;;;4.83;;
8927;SDS011;4499;48.304;11.902;2023-06-22T01:36:41;7.30;;;5.13;;
8927;SDS011;4499;48.304;11.902;2023-06-22T01:39:10;9.30;;;5.10;;
8927;SDS011;4499;48.304;11.902;2023-06-22T01:41:40;8.37;;;4.90;;
8927;SDS011;4499;48.304;11.902;2023-06-22T01:44:11;9.93;;;5.13;;
8927;SDS011;4499;48.304;11.902;2023-06-22T01:46:40;8.63;;;5.23;;
8927;SDS011;4499;48.304;11.902;2023-06-22T01:49:08;7.17;;;4.90;;
8927;SDS011;4499;48.304;11.902;2023-06-22T01:51:36;9.10;;;5.33;;
8927;SDS011;4499;48.304;11.902;2023-06-22T01:54:06;10.17;;;5.10;;
8927;SDS011;4499;48.304;11.902;2023-06-22T01:56:35;9.70;;;5.00;;
8927;SDS011;4499;48.304;11.902;2023-06-22T01:59:04;10.53;;;5.00;;
8927;SDS011;4499;48.304;11.902;2023-06-22T02:01:42;7.70;;;4.90;;
8927;SDS011;4499;48.304;11.902;2023-06-22T02:04:15;10.87;;;5.23;;
8927;SDS011;4499;48.304;11.902;2023-06-22T02:06:47;11.97;;;5.63;;
8927;SDS011;4499;48.304;11.902;2023-06-22T02:09:19;9.60;;;5.00;;
8927;SDS011;4499;48.304;11.902;2023-06-22T02:11:50;10.50;;;5.60;;
8927;SDS011;4499;48.304;11.902;2023-06-22T02:14:21;10.47;;;5.00;;
8927;SDS011;4499;48.304;11.902;2023-06-22T02:16:52;10.97;;;5.27;;
8927;SDS011;4499;48.304;11.902;2023-06-22T02:19:22;9.70;;;5.50;;
8927;SDS011;4499;48.304;11.902;2023-06-22T02:21:51;9.13;;;5.13;;
8927;SDS011;4499;48.304;11.902;2023-06-22T02:24:19;9.10;;;5.43;;
8927;SDS011;4499;48.304;11.902;2023-06-22T02:26:50;9.90;;;5.30;;
8927;SDS011;4499;48.304;11.902;2023-06-22T02:29:18;13.07;;;5.80;;
8927;SDS011;4499;48.304;11.902;2023-06-22T02:31:46;10.60;;;5.97;;
8927;SDS011;4499;48.304;11.902;2023-06-22T02:34:15;7.63;;;5.20;;
8927;SDS011;4499;48.304;11.902;2023-06-22T02:36:45;9.73;;;5.80;;
8927;SDS011;4499;48.304;11.902;2023-06-22T02:39:18;10.07;;;5.53;;
8927;SDS011;4499;48.304;11.902;2023-06-22T02:41:48;12.10;;;5.60;;
8927;SDS011;4499;48.304;11.902;2023-06-22T02:44:17;9.20;;;5.13;;
8927;SDS011;4499;48.304;11.902;2023-06-22T02:46:45;8.97;;;5.40;;
8927;SDS011;4499;48.304;11.902;2023-06-22T02:49:15;8.33;;;5.50;;
8927;SDS011;4499;48.304;11.902;2023-06-22T02:51:45;10.67;;;4.90;;
8927;SDS011;4499;48.304;11.902;2023-06-22T02:54:14;10.43;;;5.60;;
8927;SDS011;4499;48.304;11.902;2023-06-22T02:56:43;10.37;;;5.27;;
8927;SDS011;4499;48.304;11.902;2023-06-22T02:59:11;9.60;;;5.33;;
8927;SDS011;4499;48.304;11.902;2023-06-22T03:01:39;10.50;;;5.10;;
8927;SDS011;4499;48.304;11.902;2023-06-22T03:04:07;9.33;;;4.97;;
8927;SDS011;4499;48.304;11.902;2023-06-22T03:06:37;10.10;;;5.90;;
8927;SDS011;4499;48.304;11.902;2023-06-22T03:09:07;9.63;;;5.70;;
8927;SDS011;4499;48.304;11.902;2023-06-22T03:11:35;10.10;;;5.70;;
8927;SDS011;4499;48.304;11.902;2023-06-22T03:14:03;9.43;;;5.50;;
8927;SDS011;4499;48.304;11.902;2023-06-22T03:16:31;10.00;;;5.57;;
8927;SDS011;4499;48.304;11.902;2023-06-22T03:19:00;10.33;;;5.43;;
8927;SDS011;4499;48.304;11.902;2023-06-22T03:21:28;11.93;;;6.47;;
8927;SDS011;4499;48.304;11.902;2023-06-22T03:23:59;8.67;;;6.20;;
8927;SDS011;4499;48.304;11.902;2023-06-22T03:26:27;12.13;;;6.60;;
8927;SDS011;4499;48.304;11.902;2023-06-22T03:28:56;13.70;;;6.70;;
8927;SDS011;4499;48.304;11.902;2023-06-22T03:31:24;9.50;;;6.30;;
8927;SDS011;4499;48.304;11.902;2023-06-22T03:33:52;12.60;;;6.40;;
8927;SDS011;4499;48.304;11.902;2023-06-22T03:36:20;12.73;;;6.80;;
8927;SDS011;4499;48.304;11.902;2023-06-22T03:38:49;14.17;;;6.90;;
8927;SDS011;4499;48.304;11.902;2023-06-22T03:41:19;10.07;;;6.20;;
8927;SDS011;4499;48.304;11.902;2023-06-22T03:43:47;13.37;;;6.27;;
8927;SDS011;4499;48.304;11.902;2023-06-22T03:46:15;9.73;;;6.80;;
8927;SDS011;4499;48.304;11.902;2023-06-22T03:48:43;11.53;;;6.53;;
8927;SDS011;4499;48.304;11.902;2023-06-22T03:51:11;8.90;;;6.30;;
8927;SDS011;4499;48.304;11.902;2023-06-22T03:53:39;9.90;;;6.80;;
8927;SDS011;4499;48.304;11.902;2023-06-22T03:56:07;11.33;;;6.47;;
8927;SDS011;4499;48.304;11.902;2023-06-22T03:58:37;10.23;;;6.67;;
8927;SDS011;4499;48.304;11.902;2023-06-22T04:01:09;11.27;;;6.27;;
8927;SDS011;4499;48.304;11.902;2023-06-22T04:03:38;10.30;;;6.27;;
8927;SDS011;4499;48.304;11.902;2023-06-22T04:06:06;10.53;;;6.30;;
8927;SDS011;4499;48.304;11.902;2023-06-22T04:08:34;9.67;;;6.07;;
8927;SDS011;4499;48.304;11.902;2023-06-22T04:11:02;9.50;;;6.10;;
8927;SDS011;4499;48.304;11.902;2023-06-22T04:13:31;11.53;;;6.50;;
8927;SDS011;4499;48.304;11.902;2023-06-22T04:16:00;13.30;;;6.60;;
8927;SDS011;4499;48.304;11.902;2023-06-22T04:18:29;12.67;;;6.80;;
8927;SDS011;4499;48.304;11.902;2023-06-22T04:20:57;14.23;;;6.20;;
8927;SDS011;4499;48.304;11.902;2023-06-22T04:23:25;10.60;;;6.00;;
8927;SDS011;4499;48.304;11.902;2023-06-22T04:25:53;12.70;;;6.80;;
8927;SDS011;4499;48.304;11.902;2023-06-22T04:28:24;8.83;;;5.67;;
8927;SDS011;4499;48.304;11.902;2023-06-22T04:30:53;13.37;;;6.23;;
8927;SDS011;4499;48.304;11.902;2023-06-22T04:33:26;12.73;;;7.03;;
8927;SDS011;4499;48.304;11.902;2023-06-22T04:35:55;10.27;;;6.00;;
8927;SDS011;4499;48.304;11.902;2023-06-22T04:38:24;9.30;;;5.57;;
8927;SDS011;4499;48.304;11.902;2023-06-22T04:40:52;11.53;;;5.53;;
8927;SDS011;4499;48.304;11.902;2023-06-22T04:43:20;13.20;;;5.57;;
8927;SDS011;4499;48.304;11.902;2023-06-22T04:45:48;9.40;;;5.40;;
8927;SDS011;4499;48.304;11.902;2023-06-22T04:48:19;9.47;;;5.80;;
8927;SDS011;4499;48.304;11.902;2023-06-22T04:50:48;10.87;;;5.73;;
8927;SDS011;4499;48.304;11.902;2023-06-22T04:53:16;8.50;;;5.43;;
8927;SDS011;4499;48.304;11.902;2023-06-22T04:55:44;13.13;;;5.63;;
8927;SDS011;4499;48.304;11.902;2023-06-22T04:58:15;10.57;;;5.90;;
8927;SDS011;4499;48.304;11.902;2023-06-22T05:00:46;8.77;;;5.40;;
8927;SDS011;4499;48.304;11.902;2023-06-22T05:03:17;10.93;;;5.63;;
8927;SDS011;4499;48.304;11.902;2023-06-22T05:05:46;10.23;;;5.67;;
8927;SDS011;4499;48.304;11.902;2023-06-22T05:08:16;11.70;;;5.80;;
8927;SDS011;4499;48.304;11.902;2023-06-22T05:10:44;12.27;;;5.40;;
8927;SDS011;4499;48.304;11.902;2023-06-22T05:13:29;9.27;;;5.30;;
8927;SDS011;4499;48.304;11.902;2023-06-22T05:15:57;9.33;;;5.20;;
8927;SDS011;4499;48.304;11.902;2023-06-22T05:18:29;10.03;;;5.40;;
8927;SDS011;4499;48.304;11.902;2023-06-22T05:20:58;12.30;;;5.47;;
8927;SDS011;4499;48.304;11.902;2023-06-22T05:23:28;9.93;;;5.63;;
8927;SDS011;4499;48.304;11.902;2023-06-22T05:25:56;9.60;;;5.20;;
8927;SDS011;4499;48.304;11.902;2023-06-22T05:28:25;11.73;;;5.53;;
8927;SDS011;4499;48.304;11.902;2023-06-22T05:30:53;10.70;;;5.13;;
8927;SDS011;4499;48.304;11.902;2023-06-22T05:33:21;11.90;;;5.30;;
8927;SDS011;4499;48.304;11.902;2023-06-22T05:35:49;10.90;;;5.13;;
8927;SDS011;4499;48.304;11.902;2023-06-22T05:38:18;10.33;;;4.90;;
8927;SDS011;4499;48.304;11.902;2023-06-22T05:40:47;10.10;;;4.43;;
8927;SDS011;4499;48.304;11.902;2023-06-22T05:43:15;7.77;;;4.63;;
8927;SDS011;4499;48.304;11.902;2023-06-22T05:45:43;8.23;;;4.80;;
8927;SDS011;4499;48.304;11.902;2023-06-22T05:48:11;10.50;;;5.30;;
8927;SDS011;4499;48.304;11.902;2023-06-22T05:50:39;8.77;;;4.97;;
8927;SDS011;4499;48.304;11.902;2023-06-22T05:53:07;6.80;;;4.47;;
8927;SDS011;4499;48.304;11.902;2023-06-22T05:55:36;8.70;;;4.23;;
8927;SDS011;4499;48.304;11.902;2023-06-22T05:58:05;14.00;;;4.57;;
8927;SDS011;4499;48.304;11.902;2023-06-22T06:00:33;11.73;;;4.47;;
8927;SDS011;4499;48.304;11.902;2023-06-22T06:03:02;10.67;;;4.50;;
8927;SDS011;4499;48.304;11.902;2023-06-22T06:05:30;9.07;;;3.97;;
8927;SDS011;4499;48.304;11.902;2023-06-22T06:07:59;7.67;;;3.83;;
8927;SDS011;4499;48.304;11.902;2023-06-22T06:10:28;11.13;;;4.27;;
8927;SDS011;4499;48.304;11.902;2023-06-22T06:12:57;8.27;;;3.97;;
8927;SDS011;4499;48.304;11.902;2023-06-22T06:15:29;10.60;;;4.00;;
8927;SDS011;4499;48.304;11.902;2023-06-22T06:17:58;7.67;;;3.93;;
8927;SDS011;4499;48.304;11.902;2023-06-22T06:20:26;8.50;;;3.70;;
8927;SDS011;4499;48.304;11.902;2023-06-22T06:22:55;9.57;;;4.00;;
8927;SDS011;4499;48.304;11.902;2023-06-22T06:25:23;7.07;;;3.50;;
8927;SDS011;4499;48.304;11.902;2023-06-22T06:27:52;6.30;;;3.75;;
8927;SDS011;4499;48.304;11.902;2023-06-22T06:30:21;10.35;;;4.10;;
8927;SDS011;4499;48.304;11.902;2023-06-22T06:32:51;8.45;;;4.10;;
8927;SDS011;4499;48.304;11.902;2023-06-22T06:35:19;7.70;;;3.53;;
8927;SDS011;4499;48.304;11.902;2023-06-22T06:37:48;7.60;;;3.72;;
8927;SDS011;4499;48.304;11.902;2023-06-22T06:40:18;9.05;;;3.75;;
8927;SDS011;4499;48.304;11.902;2023-06-22T06:42:47;12.82;;;3.95;;
8927;SDS011;4499;48.304;11.902;2023-06-22T06:45:18;11.75;;;3.92;;
8927;SDS011;4499;48.304;11.902;2023-06-22T06:47:49;9.98;;;3.55;;
8927;SDS011;4499;48.304;11.902;2023-06-22T06:50:19;9.95;;;3.60;;
8927;SDS011;4499;48.304;11.902;2023-06-22T06:52:48;8.55;;;3.80;;
8927;SDS011;4499;48.304;11.902;2023-06-22T06:55:17;10.10;;;4.18;;
8927;SDS011;4499;48.304;11.902;2023-06-22T06:57:46;6.43;;;3.80;;
8927;SDS011;4499;48.304;11.902;2023-06-22T07:00:16;10.95;;;4.07;;
8927;SDS011;4499;48.304;11.902;2023-06-22T07:02:46;11.00;;;3.70;;
8927;SDS011;4499;48.304;11.902;2023-06-22T07:05:16;7.45;;;3.70;;
8927;SDS011;4499;48.304;11.902;2023-06-22T07:07:45;13.23;;;4.32;;
8927;SDS011;4499;48.304;11.902;2023-06-22T07:10:13;11.50;;;4.32;;
8927;SDS011;4499;48.304;11.902;2023-06-22T07:12:42;16.35;;;4.20;;
8927;SDS011;4499;48.304;11.902;2023-06-22T07:15:10;12.98;;;4.25;;
8927;SDS011;4499;48.304;11.902;2023-06-22T07:17:39;9.10;;;3.90;;
8927;SDS011;4499;48.304;11.902;2023-06-22T07:20:08;11.60;;;4.57;;
8927;SDS011;4499;48.304;11.902;2023-06-22T07:22:42;10.35;;;4.50;;
8927;SDS011;4499;48.304;11.902;2023-06-22T07:25:18;11.80;;;4.20;;
8927;SDS011;4499;48.304;11.902;2023-06-22T07:27:58;9.30;;;4.10;;
8927;SDS011;4499;48.304;11.902;2023-06-22T07:30:27;11.80;;;4.53;;
8927;SDS011;4499;48.304;11.902;2023-06-22T07:32:57;7.78;;;3.67;;
8927;SDS011;4499;48.304;11.902;2023-06-22T07:35:30;10.45;;;4.43;;
8927;SDS011;4499;48.304;11.902;2023-06-22T07:38:00;11.23;;;4.45;;
8927;SDS011;4499;48.304;11.902;2023-06-22T07:40:31;10.43;;;3.88;;
8927;SDS011;4499;48.304;11.902;2023-06-22T07:43:01;8.77;;;4.40;;
8927;SDS011;4499;48.304;11.902;2023-06-22T07:45:31;12.07;;;4.90;;
8927;SDS011;4499;48.304;11.902;2023-06-22T07:48:01;17.70;;;5.03;;
8927;SDS011;4499;48.304;11.902;2023-06-22T07:50:30;10.25;;;5.00;;
8927;SDS011;4499;48.304;11.902;2023-06-22T07:52:59;9.73;;;4.88;;
8927;SDS011;4499;48.304;11.902;2023-06-22T07:55:28;11.95;;;4.55;;
8927;SDS011;4499;48.304;11.902;2023-06-22T07:57:56;10.95;;;4.50;;
8927;SDS011;4499;48.304;11.902;2023-06-22T08:00:24;11.07;;;4.20;;
8927;SDS011;4499;48.304;11.902;2023-06-22T08:02:53;13.45;;;4.50;;
8927;SDS011;4499;48.304;11.902;2023-06-22T08:05:22;12.18;;;4.63;;
8927;SDS011;4499;48.304;11.902;2023-06-22T08:07:50;11.63;;;4.88;;
8927;SDS011;4499;48.304;11.902;2023-06-22T08:10:21;10.23;;;4.57;;
8927;SDS011;4499;48.304;11.902;2023-06-22T08:12:49;8.00;;;4.30;;
8927;SDS011;4499;48.304;11.902;2023-06-22T08:15:18;10.52;;;4.82;;
8927;SDS011;4499;48.304;11.902;2023-06-22T08:17:48;17.02;;;4.65;;
8927;SDS011;4499;48.304;11.902;2023-06-22T08:20:19;8.38;;;4.57;;
8927;SDS011;4499;48.304;11.902;2023-06-22T08:22:47;8.95;;;4.18;;
8927;SDS011;4499;48.304;11.902;2023-06-22T08:25:15;9.43;;;4.55;;
8927;SDS011;4499;48.304;11.902;2023-06-22T08:27:46;13.93;;;4.57;;
8927;SDS011;4499;48.304;11.902;2023-06-22T08:30:15;17.77;;;5.78;;
8927;SDS011;4499;48.304;11.902;2023-06-22T08:32:44;16.40;;;5.70;;
8927;SDS011;4499;48.304;11.902;2023-06-22T08:35:13;11.07;;;4.78;;
8927;SDS011;4499;48.304;11.902;2023-06-22T08:37:41;11.52;;;4.78;;
8927;SDS011;4499;48.304;11.902;2023-06-22T08:40:09;10.65;;;4.88;;
8927;SDS011;4499;48.304;11.902;2023-06-22T08:42:40;11.75;;;5.07;;
8927;SDS011;4499;48.304;11.902;2023-06-22T08:45:11;11.43;;;5.00;;
8927;SDS011;4499;48.304;11.902;2023-06-22T08:47:39;11.07;;;4.93;;
8927;SDS011;4499;48.304;11.902;2023-06-22T08:50:09;13.15;;;4.78;;
8927;SDS011;4499;48.304;11.902;2023-06-22T08:52:38;12.32;;;4.90;;
8927;SDS011;4499;48.304;11.902;2023-06-22T08:55:08;12.40;;;4.72;;
8927;SDS011;4499;48.304;11.902;2023-06-22T08:57:37;13.15;;;5.60;;
8927;SDS011;4499;48.304;11.902;2023-06-22T09:00:06;9.82;;;4.50;;
8927;SDS011;4499;48.304;11.902;2023-06-22T09:02:44;10.77;;;4.55;;
8927;SDS011;4499;48.304;11.902;2023-06-22T09:05:13;9.60;;;4.68;;
8927;SDS011;4499;48.304;11.902;2023-06-22T09:07:42;12.02;;;5.00;;
8927;SDS011;4499;48.304;11.902;2023-06-22T09:10:10;13.82;;;5.35;;
8927;SDS011;4499;48.304;11.902;2023-06-22T09:12:39;15.10;;;5.13;;
8927;SDS011;4499;48.304;11.902;2023-06-22T09:15:08;10.60;;;4.72;;
8927;SDS011;4499;48.304;11.902;2023-06-22T09:17:42;13.63;;;5.00;;
8927;SDS011;4499;48.304;11.902;2023-06-22T09:20:13;13.45;;;4.57;;
8927;SDS011;4499;48.304;11.902;2023-06-22T09:22:42;11.15;;;5.40;;
8927;SDS011;4499;48.304;11.902;2023-06-22T09:25:10;13.38;;;4.82;;
8927;SDS011;4499;48.304;11.902;2023-06-22T09:27:39;10.65;;;4.82;;
8927;SDS011;4499;48.304;11.902;2023-06-22T09:30:08;15.45;;;4.97;;
8927;SDS011;4499;48.304;11.902;2023-06-22T09:32:36;12.93;;;4.82;;
8927;SDS011;4499;48.304;11.902;2023-06-22T09:35:07;9.90;;;4.63;;
8927;SDS011;4499;48.304;11.902;2023-06-22T09:37:38;9.82;;;4.88;;
8927;SDS011;4499;48.304;11.902;2023-06-22T09:40:06;13.40;;;5.10;;
8927;SDS011;4499;48.304;11.902;2023-06-22T09:42:37;11.13;;;4.93;;
8927;SDS011;4499;48.304;11.902;2023-06-22T09:45:06;13.23;;;5.10;;
8927;SDS011;4499;48.304;11.902;2023-06-22T09:47:34;11.77;;;4.97;;
8927;SDS011;4499;48.304;11.902;2023-06-22T09:50:04;15.10;;;4.90;;
8927;SDS011;4499;48.304;11.902;2023-06-22T09:52:34;14.15;;;4.88;;
8927;SDS011;4499;48.304;11.902;2023-06-22T09:55:05;13.65;;;4.93;;
8927;SDS011;4499;48.304;11.902;2023-06-22T09:57:34;10.63;;;4.93;;
8927;SDS011;4499;48.304;11.902;2023-06-22T10:00:02;10.65;;;5.20;;
8927;SDS011;4499;48.304;11.902;2023-06-22T10:02:35;13.25;;;4.93;;
8927;SDS011;4499;48.304;11.902;2023-06-22T10:05:03;14.38;;;5.03;;
8927;SDS011;4499;48.304;11.902;2023-06-22T10:07:34;10.13;;;4.90;;
8927;SDS011;4499;48.304;11.902;2023-06-22T10:10:06;9.70;;;5.13;;
8927;SDS011;4499;48.304;11.902;2023-06-22T10:12:35;10.18;;;4.97;;
8927;SDS011;4499;48.304;11.902;2023-06-22T10:15:04;11.13;;;5.30;;
8927;SDS011;4499;48.304;11.902;2023-06-22T10:17:33;14.38;;;4.97;;
8927;SDS011;4499;48.304;11.902;2023-06-22T10:20:02;11.88;;;5.20;;
8927;SDS011;4499;48.304;11.902;2023-06-22T10:22:39;13.98;;;4.97;;
8927;SDS011;4499;48.304;11.902;2023-06-22T10:25:08;12.13;;;4.85;;
8927;SDS011;4499;48.304;11.902;2023-06-22T10:27:38;16.73;;;5.20;;
8927;SDS011;4499;48.304;11.902;2023-06-22T10:30:07;11.73;;;5.10;;
8927;SDS011;4499;48.304;11.902;2023-06-22T10:32:39;10.98;;;4.82;;
8927;SDS011;4499;48.304;11.902;2023-06-22T10:35:09;12.95;;;5.03;;
8927;SDS011;4499;48.304;11.902;2023-06-22T10:37:41;10.82;;;4.65;;
8927;SDS011;4499;48.304;11.902;2023-06-22T10:40:11;12.48;;;5.30;;
8927;SDS011;4499;48.304;11.902;2023-06-22T10:42:41;13.27;;;5.20;;
8927;SDS011;4499;48.304;11.902;2023-06-22T10:45:10;11.35;;;4.60;;
8927;SDS011;4499;48.304;11.902;2023-06-22T10:47:38;11.70;;;5.10;;
8927;SDS011;4499;48.304;11.902;2023-06-22T10:50:09;9.05;;;4.85;;
8927;SDS011;4499;48.304;11.902;2023-06-22T10:52:37;10.25;;;4.90;;
8927;SDS011;4499;48.304;11.902;2023-06-22T10:55:07;13.98;;;5.03;;
8927;SDS011;4499;48.304;11.902;2023-06-22T10:57:36;15.73;;;5.10;;
8927;SDS011;4499;48.304;11.902;2023-06-22T11:00:05;12.18;;;4.72;;
8927;SDS011;4499;48.304;11.902;2023-06-22T11:02:37;13.55;;;5.00;;
8927;SDS011;4499;48.304;11.902;2023-06-22T11:05:06;14.48;;;5.60;;
8927;SDS011;4499;48.304;11.902;2023-06-22T11:07:34;11.70;;;4.95;;
8927;SDS011;4499;48.304;11.902;2023-06-22T11:10:09;19.92;;;5.22;;
8927;SDS011;4499;48.304;11.902;2023-06-22T11:12:37;10.88;;;5.20;;
8927;SDS011;4499;48.304;11.902;2023-06-22T11:15:06;14.65;;;5.10;;
8927;SDS011;4499;48.304;11.902;2023-06-22T11:17:35;10.55;;;5.20;;
8927;SDS011;4499;48.304;11.902;2023-06-22T11:20:04;12.18;;;5.32;;
8927;SDS011;4499;48.304;11.902;2023-06-22T11:22:37;11.73;;;5.20;;
8927;SDS011;4499;48.304;11.902;2023-06-22T11:25:06;12.40;;;5.40;;
8927;SDS011;4499;48.304;11.902;2023-06-22T11:27:36;10.85;;;5.20;;
8927;SDS011;4499;48.304;11.902;2023-06-22T11:30:05;11.57;;;4.75;;
8927;SDS011;4499;48.304;11.902;2023-06-22T11:32:34;13.18;;;5.03;;
8927;SDS011;4499;48.304;11.902;2023-06-22T11:35:02;13.90;;;5.45;;
8927;SDS011;4499;48.304;11.902;2023-06-22T11:37:30;18.75;;;5.28;;
8927;SDS011;4499;48.304;11.902;2023-06-22T11:39:59;12.32;;;5.25;;
8927;SDS011;4499;48.304;11.902;2023-06-22T11:42:33;12.93;;;5.25;;
8927;SDS011;4499;48.304;11.902;2023-06-22T11:45:04;15.45;;;5.40;;
8927;SDS011;4499;48.304;11.902;2023-06-22T11:47:33;13.68;;;5.03;;
8927;SDS011;4499;48.304;11.902;2023-06-22T11:50:01;13.50;;;5.10;;
8927;SDS011;4499;48.304;11.902;2023-06-22T11:52:29;15.90;;;5.40;;
8927;SDS011;4499;48.304;11.902;2023-06-22T11:54:57;14.93;;;5.10;;
8927;SDS011;4499;48.304;11.902;2023-06-22T11:57:26;16.23;;;5.70;;
8927;SDS011;4499;48.304;11.902;2023-06-22T11:59:54;16.35;;;5.82;;
8927;SDS011;4499;48.304;11.902;2023-06-22T12:02:24;13.85;;;5.32;;
8927;SDS011;4499;48.304;11.902;2023-06-22T12:04:52;18.05;;;5.35;;
8927;SDS011;4499;48.304;11.902;2023-06-22T12:07:22;13.82;;;5.25;;
8927;SDS011;4499;48.304;11.902;2023-06-22T12:09:50;14.00;;;5.60;;
8927;SDS011;4499;48.304;11.902;2023-06-22T12:12:18;11.55;;;5.22;;
8927;SDS011;4499;48.304;11.902;2023-06-22T12:14:47;16.52;;;5.50;;
8927;SDS011;4499;48.304;11.902;2023-06-22T12:17:15;12.45;;;4.72;;
8927;SDS011;4499;48.304;11.902;2023-06-22T12:19:44;14.82;;;5.25;;
8927;SDS011;4499;48.304;11.902;2023-06-22T12:22:12;15.63;;;5.35;;
8927;SDS011;4499;48.304;11.902;2023-06-22T12:24:40;19.23;;;5.30;;
8927;SDS011;4499;48.304;11.902;2023-06-22T12:27:08;11.60;;;4.85;;
8927;SDS011;4499;48.304;11.902;2023-06-22T12:29:37;12.57;;;5.05;;
8927;SDS011;4499;48.304;11.902;2023-06-22T12:32:06;14.20;;;4.78;;
8927;SDS011;4499;48.304;11.902;2023-06-22T12:34:34;16.88;;;5.43;;
8927;SDS011;4499;48.304;11.902;2023-06-22T12:37:04;15.20;;;5.20;;
8927;SDS011;4499;48.304;11.902;2023-06-22T12:39:32;16.08;;;5.22;;
8927;SDS011;4499;48.304;11.902;2023-06-22T12:42:00;18.25;;;5.20;;
8927;SDS011;4499;48.304;11.902;2023-06-22T12:44:28;16.40;;;5.20;;
8927;SDS011;4499;48.304;11.902;2023-06-22T12:46:56;13.40;;;5.40;;
8927;SDS011;4499;48.304;11.902;2023-06-22T12:49:25;18.35;;;5.55;;
8927;SDS011;4499;48.304;11.902;2023-06-22T12:51:53;12.65;;;5.18;;
8927;SDS011;4499;48.304;11.902;2023-06-22T12:54:22;14.43;;;5.13;;
8927;SDS011;4499;48.304;11.902;2023-06-22T12:56:51;15.32;;;5.20;;
8927;SDS011;4499;48.304;11.902;2023-06-22T12:59:21;16.20;;;5.30;;
8927;SDS011;4499;48.304;11.902;2023-06-22T13:01:49;12.75;;;5.53;;
8927;SDS011;4499;48.304;11.902;2023-06-22T13:04:17;13.40;;;5.18;;
8927;SDS011;4499;48.304;11.902;2023-06-22T13:06:46;13.50;;;5.07;;
8927;SDS011;4499;48.304;11.902;2023-06-22T13:09:18;14.07;;;5.20;;
8927;SDS011;4499;48.304;11.902;2023-06-22T13:11:48;13.30;;;5.03;;
8927;SDS011;4499;48.304;11.902;2023-06-22T13:14:17;14.45;;;5.22;;
8927;SDS011;4499;48.304;11.902;2023-06-22T13:16:45;14.13;;;4.97;;
8927;SDS011;4499;48.304;11.902;2023-06-22T13:19:13;15.40;;;5.25;;
8927;SDS011;4499;48.304;11.902;2023-06-22T13:21:41;15.43;;;5.30;;
8927;SDS011;4499;48.304;11.902;2023-06-22T13:24:09;16.42;;;5.55;;
8927;SDS011;4499;48.304;11.902;2023-06-22T13:26:38;13.75;;;5.30;;
8927;SDS011;4499;48.304;11.902;2023-06-22T13:29:07;14.73;;;5.60;;
8927;SDS011;4499;48.304;11.902;2023-06-22T13:31:35;15.45;;;5.05;;
8927;SDS011;4499;48.304;11.902;2023-06-22T13:34:04;15.88;;;5.18;;
8927;SDS011;4499;48.304;11.902;2023-06-22T13:36:32;16.75;;;5.53;;
8927;SDS011;4499;48.304;11.902;2023-06-22T13:39:00;16.55;;;5.50;;
8927;SDS011;4499;48.304;11.902;2023-06-22T13:41:29;23.48;;;5.57;;
8927;SDS011;4499;48.304;11.902;2023-06-22T13:43:58;16.52;;;5.13;;
8927;SDS011;4499;48.304;11.902;2023-06-22T13:46:28;18.45;;;5.43;;
8927;SDS011;4499;48.304;11.902;2023-06-22T13:48:56;13.73;;;4.90;;
8927;SDS011;4499;48.304;11.902;2023-06-22T13:51:24;16.27;;;5.15;;
8927;SDS011;4499;48.304;11.902;2023-06-22T13:53:52;13.02;;;5.20;;
8927;SDS011;4499;48.304;11.902;2023-06-22T13:56:21;17.13;;;5.43;;
8927;SDS011;4499;48.304;11.902;2023-06-22T13:58:49;17.17;;;5.30;;
8927;SDS011;4499;48.304;11.902;2023-06-22T14:01:17;15.20;;;4.70;;
8927;SDS011;4499;48.304;11.902;2023-06-22T14:03:47;14.85;;;5.15;;
8927;SDS011;4499;48.304;11.902;2023-06-22T14:06:16;13.80;;;4.70;;
8927;SDS011;4499;48.304;11.902;2023-06-22T14:08:44;16.50;;;5.60;;
8927;SDS011;4499;48.304;11.902;2023-06-22T14:11:12;17.15;;;5.53;;
8927;SDS011;4499;48.304;11.902;2023-06-22T14:13:41;13.20;;;4.82;;
8927;SDS011;4499;48.304;11.902;2023-06-22T14:16:10;13.77;;;5.30;;
8927;SDS011;4499;48.304;11.902;2023-06-22T14:18:38;18.02;;;5.85;;
8927;SDS011;4499;48.304;11.902;2023-06-22T14:21:08;16.58;;;5.47;;
8927;SDS011;4499;48.304;11.902;2023-06-22T14:23:36;14.77;;;5.28;;
8927;SDS011;4499;48.304;11.902;2023-06-22T14:26:04;15.25;;;5.53;;
8927;SDS011;4499;48.304;11.902;2023-06-22T14:28:33;16.73;;;5.55;;
8927;SDS011;4499;48.304;11.902;2023-06-22T14:31:01;18.27;;;5.05;;
8927;SDS011;4499;48.304;11.902;2023-06-22T14:33:29;16.55;;;5.47;;
8927;SDS011;4499;48.304;11.902;2023-06-22T14:35:57;17.83;;;5.50;;
8927;SDS011;4499;48.304;11.902;2023-06-22T14:38:27;15.13;;;5.57;;
8927;SDS011;4499;48.304;11.902;2023-06-22T14:40:55;18.65;;;5.13;;
8927;SDS011;4499;48.304;11.902;2023-06-22T14:43:38;14.73;;;5.57;;
8927;SDS011;4499;48.304;11.902;2023-06-22T14:46:10;12.80;;;4.63;;
8927;SDS011;4499;48.304;11.902;2023-06-22T14:48:38;17.83;;;5.78;;
8927;SDS011;4499;48.304;11.902;2023-06-22T14:51:07;12.15;;;5.03;;
8927;SDS011;4499;48.304;11.902;2023-06-22T14:53:38;18.10;;;5.38;;
8927;SDS011;4499;48.304;11.902;2023-06-22T14:56:07;16.35;;;5.40;;
8927;SDS011;4499;48.304;11.902;2023-06-22T14:58:35;15.65;;;5.65;;
8927;SDS011;4499;48.304;11.902;2023-06-22T15:01:03;15.10;;;4.88;;
8927;SDS011;4499;48.304;11.902;2023-06-22T15:03:34;20.65;;;5.63;;
8927;SDS011;4499;48.304;11.902;2023-06-22T15:06:03;20.85;;;5.18;;